sensor_id;sensor_type;location;lat;lon;timestamp;P1;durP1;ratioP1;P2;durP2;ratioP2
12072;SDS011;6098;49.004;8.372;2023-04-24T00:03:05;0.87;;;0.81;;
12072;SDS011;6098;49.004;8.372;2023-04-24T00:17:57;1.73;;;0.88;;
12072;SDS011;6098;49.004;8.372;2023-04-24T00:32:49;2.72;;;1.08;;
12072;SDS011;6098;49.004;8.372;2023-04-24T00:47:40;1.06;;;0.72;;
12072;SDS011;6098;49.004;8.372;2023-04-24T01:02:30;2.53;;;0.90;;
12072;SDS011;6098;49.004;8.372;2023-04-24T01:17:21;1.14;;;0.80;;
12072;SDS011;6098;49.004;8.372;2023-04-24T01:32:11;1.44;;;0.78;;
12072;SDS011;6098;49.004;8.372;2023-04-24T01:47:02;2.93;;;1.00;;
12072;SDS011;6098;49.004;8.372;2023-04-24T02:01:53;2.38;;;0.99;;
12072;SDS011;6098;49.004;8.372;2023-04-24T02:16:45;1.51;;;1.04;;
12072;SDS011;6098;49.004;8.372;2023-04-24T02:31:40;1.14;;;1.03;;
12072;SDS011;6098;49.004;8.372;2023-04-24T02:46:32;2.14;;;1.23;;
12072;SDS011;6098;49.004;8.372;2023-04-24T03:01:23;2.32;;;1.00;;
12072;SDS011;6098;49.004;8.372;2023-04-24T03:16:19;1.42;;;0.98;;
12072;SDS011;6098;49.004;8.372;2023-04-24T03:31:12;2.26;;;1.30;;
12072;SDS011;6098;49.004;8.372;2023-04-24T03:46:21;3.23;;;1.49;;
12072;SDS011;6098;49.004;8.372;2023-04-24T04:01:24;2.64;;;1.80;;
12072;SDS011;6098;49.004;8.372;2023-04-24T04:16:18;3.97;;;2.21;;
12072;SDS011;6098;49.004;8.372;2023-04-24T04:31:10;3.41;;;1.98;;
12072;SDS011;6098;49.004;8.372;2023-04-24T04:46:15;2.72;;;1.80;;
12072;SDS011;6098;49.004;8.372;2023-04-24T05:01:06;2.30;;;2.02;;
12072;SDS011;6098;49.004;8.372;2023-04-24T05:15:58;3.60;;;2.42;;
12072;SDS011;6098;49.004;8.372;2023-04-24T05:30:50;2.48;;;2.27;;
12072;SDS011;6098;49.004;8.372;2023-04-24T05:45:41;3.23;;;1.79;;
12072;SDS011;6098;49.004;8.372;2023-04-24T06:00:34;1.88;;;1.61;;
12072;SDS011;6098;49.004;8.372;2023-04-24T06:15:26;2.30;;;1.70;;
12072;SDS011;6098;49.004;8.372;2023-04-24T06:30:17;2.07;;;1.87;;
12072;SDS011;6098;49.004;8.372;2023-04-24T06:45:07;2.43;;;1.99;;
12072;SDS011;6098;49.004;8.372;2023-04-24T07:00:00;4.07;;;1.91;;
12072;SDS011;6098;49.004;8.372;2023-04-24T07:14:50;3.20;;;2.03;;
12072;SDS011;6098;49.004;8.372;2023-04-24T07:29:43;2.41;;;1.63;;
12072;SDS011;6098;49.004;8.372;2023-04-24T07:44:34;2.44;;;1.47;;
12072;SDS011;6098;49.004;8.372;2023-04-24T07:59:25;1.88;;;1.40;;
12072;SDS011;6098;49.004;8.372;2023-04-24T08:14:15;4.80;;;1.68;;
12072;SDS011;6098;49.004;8.372;2023-04-24T08:29:09;1.29;;;1.10;;
12072;SDS011;6098;49.004;8.372;2023-04-24T08:43:58;1.40;;;1.30;;
12072;SDS011;6098;49.004;8.372;2023-04-24T08:58:50;3.47;;;1.74;;
12072;SDS011;6098;49.004;8.372;2023-04-24T09:13:43;2.54;;;1.69;;
12072;SDS011;6098;49.004;8.372;2023-04-24T09:28:37;2.60;;;1.74;;
12072;SDS011;6098;49.004;8.372;2023-04-24T09:43:29;2.70;;;2.41;;
12072;SDS011;6098;49.004;8.372;2023-04-24T09:58:26;3.54;;;2.10;;
12072;SDS011;6098;49.004;8.372;2023-04-24T10:13:21;2.67;;;1.71;;
12072;SDS011;6098;49.004;8.372;2023-04-24T10:28:11;2.61;;;1.99;;
12072;SDS011;6098;49.004;8.372;2023-04-24T10:43:03;3.48;;;2.38;;
12072;SDS011;6098;49.004;8.372;2023-04-24T10:58:02;4.30;;;2.47;;
12072;SDS011;6098;49.004;8.372;2023-04-24T11:12:56;3.88;;;2.64;;
12072;SDS011;6098;49.004;8.372;2023-04-24T11:27:48;4.44;;;3.86;;
12072;SDS011;6098;49.004;8.372;2023-04-24T11:42:41;4.52;;;3.51;;
12072;SDS011;6098;49.004;8.372;2023-04-24T11:57:33;6.02;;;4.73;;
12072;SDS011;6098;49.004;8.372;2023-04-24T12:12:26;5.79;;;3.21;;
12072;SDS011;6098;49.004;8.372;2023-04-24T12:27:19;5.08;;;3.40;;
12072;SDS011;6098;49.004;8.372;2023-04-24T12:42:11;2.98;;;2.77;;
12072;SDS011;6098;49.004;8.372;2023-04-24T12:57:02;3.50;;;2.91;;
12072;SDS011;6098;49.004;8.372;2023-04-24T13:11:52;4.64;;;3.16;;
12072;SDS011;6098;49.004;8.372;2023-04-24T13:26:45;4.03;;;3.24;;
12072;SDS011;6098;49.004;8.372;2023-04-24T13:41:38;3.84;;;3.30;;
12072;SDS011;6098;49.004;8.372;2023-04-24T13:56:28;4.19;;;2.70;;
12072;SDS011;6098;49.004;8.372;2023-04-24T14:11:18;3.98;;;2.44;;
12072;SDS011;6098;49.004;8.372;2023-04-24T14:26:08;2.79;;;2.50;;
12072;SDS011;6098;49.004;8.372;2023-04-24T14:41:06;3.05;;;2.12;;
12072;SDS011;6098;49.004;8.372;2023-04-24T14:56:04;2.08;;;1.95;;
12072;SDS011;6098;49.004;8.372;2023-04-24T15:10:50;3.34;;;2.27;;
12072;SDS011;6098;49.004;8.372;2023-04-24T15:25:39;5.47;;;3.32;;
12072;SDS011;6098;49.004;8.372;2023-04-24T15:40:28;2.72;;;2.50;;
12072;SDS011;6098;49.004;8.372;2023-04-24T15:55:18;3.84;;;3.08;;
12072;SDS011;6098;49.004;8.372;2023-04-24T16:10:16;2.26;;;1.76;;
12072;SDS011;6098;49.004;8.372;2023-04-24T16:25:08;2.30;;;1.82;;
12072;SDS011;6098;49.004;8.372;2023-04-24T16:40:01;1.83;;;1.73;;
12072;SDS011;6098;49.004;8.372;2023-04-24T16:54:52;3.08;;;2.53;;
12072;SDS011;6098;49.004;8.372;2023-04-24T17:09:42;3.08;;;2.78;;
12072;SDS011;6098;49.004;8.372;2023-04-24T17:24:32;3.66;;;2.70;;
12072;SDS011;6098;49.004;8.372;2023-04-24T17:39:24;4.71;;;3.00;;
12072;SDS011;6098;49.004;8.372;2023-04-24T17:56:33;3.79;;;3.15;;
12072;SDS011;6098;49.004;8.372;2023-04-24T17:59:00;3.79;;;3.39;;
12072;SDS011;6098;49.004;8.372;2023-04-24T18:13:16;4.61;;;3.16;;
12072;SDS011;6098;49.004;8.372;2023-04-24T18:28:10;3.96;;;3.18;;
12072;SDS011;6098;49.004;8.372;2023-04-24T18:43:00;4.02;;;3.62;;
12072;SDS011;6098;49.004;8.372;2023-04-24T18:57:51;4.28;;;3.54;;
12072;SDS011;6098;49.004;8.372;2023-04-24T19:12:42;6.48;;;4.09;;
12072;SDS011;6098;49.004;8.372;2023-04-24T19:27:34;3.54;;;3.09;;
12072;SDS011;6098;49.004;8.372;2023-04-24T19:42:25;3.34;;;3.04;;
12072;SDS011;6098;49.004;8.372;2023-04-24T19:57:17;6.76;;;3.40;;
12072;SDS011;6098;49.004;8.372;2023-04-24T20:12:09;4.37;;;2.99;;
12072;SDS011;6098;49.004;8.372;2023-04-24T20:27:01;3.32;;;2.84;;
12072;SDS011;6098;49.004;8.372;2023-04-24T20:41:53;3.26;;;2.96;;
12072;SDS011;6098;49.004;8.372;2023-04-24T20:56:44;3.57;;;2.77;;
12072;SDS011;6098;49.004;8.372;2023-04-24T21:11:35;3.49;;;2.57;;
12072;SDS011;6098;49.004;8.372;2023-04-24T21:26:26;3.06;;;2.76;;
12072;SDS011;6098;49.004;8.372;2023-04-24T21:41:18;4.08;;;2.98;;
12072;SDS011;6098;49.004;8.372;2023-04-24T21:56:10;4.47;;;3.11;;
12072;SDS011;6098;49.004;8.372;2023-04-24T22:11:00;3.99;;;2.54;;
12072;SDS011;6098;49.004;8.372;2023-04-24T22:25:50;4.26;;;3.60;;
12072;SDS011;6098;49.004;8.372;2023-04-24T22:40:41;4.67;;;3.58;;
12072;SDS011;6098;49.004;8.372;2023-04-24T22:55:34;4.30;;;3.74;;
12072;SDS011;6098;49.004;8.372;2023-04-24T23:10:27;4.02;;;3.48;;
12072;SDS011;6098;49.004;8.372;2023-04-24T23:25:18;4.88;;;3.96;;
12072;SDS011;6098;49.004;8.372;2023-04-24T23:40:11;7.49;;;5.23;;
12072;SDS011;6098;49.004;8.372;2023-04-24T23:55:01;6.73;;;5.00;;
